sensor_id;sensor_type;location;lat;lon;timestamp;P1;durP1;ratioP1;P2;durP2;ratioP2
20173;SDS011;10246;50.620;7.232;2023-04-03T00:01:27;0.10;;;0.10;;
20173;SDS011;10246;50.620;7.232;2023-04-03T00:03:54;0.10;;;0.10;;
20173;SDS011;10246;50.620;7.232;2023-04-03T00:06:21;0.20;;;0.20;;
20173;SDS011;10246;50.620;7.232;2023-04-03T00:08:50;0.20;;;0.20;;
20173;SDS011;10246;50.620;7.232;2023-04-03T00:11:18;0.20;;;0.20;;
20173;SDS011;10246;50.620;7.232;2023-04-03T00:13:46;0.10;;;0.10;;
20173;SDS011;10246;50.620;7.232;2023-04-03T00:16:13;0.13;;;0.13;;
20173;SDS011;10246;50.620;7.232;2023-04-03T00:18:40;0.10;;;0.10;;
20173;SDS011;10246;50.620;7.232;2023-04-03T00:21:07;0.10;;;0.10;;
20173;SDS011;10246;50.620;7.232;2023-04-03T00:23:34;0.20;;;0.20;;
20173;SDS011;10246;50.620;7.232;2023-04-03T00:26:01;0.20;;;0.20;;
20173;SDS011;10246;50.620;7.232;2023-04-03T00:28:29;0.20;;;0.20;;
20173;SDS011;10246;50.620;7.232;2023-04-03T00:30:56;0.20;;;0.20;;
20173;SDS011;10246;50.620;7.232;2023-04-03T00:33:23;0.20;;;0.20;;
20173;SDS011;10246;50.620;7.232;2023-04-03T00:35:50;0.10;;;0.10;;
20173;SDS011;10246;50.620;7.232;2023-04-03T00:38:17;0.10;;;0.10;;
20173;SDS011;10246;50.620;7.232;2023-04-03T00:40:45;0.10;;;0.10;;
20173;SDS011;10246;50.620;7.232;2023-04-03T00:43:14;0.10;;;0.10;;
20173;SDS011;10246;50.620;7.232;2023-04-03T00:45:44;0.10;;;0.10;;
20173;SDS011;10246;50.620;7.232;2023-04-03T00:48:13;0.20;;;0.20;;
20173;SDS011;10246;50.620;7.232;2023-04-03T00:50:43;0.10;;;0.10;;
20173;SDS011;10246;50.620;7.232;2023-04-03T00:53:11;0.10;;;0.10;;
20173;SDS011;10246;50.620;7.232;2023-04-03T00:55:40;0.10;;;0.10;;
20173;SDS011;10246;50.620;7.232;2023-04-03T00:58:08;0.20;;;0.20;;
20173;SDS011;10246;50.620;7.232;2023-04-03T01:00:36;0.20;;;0.20;;
20173;SDS011;10246;50.620;7.232;2023-04-03T01:03:07;0.20;;;0.20;;
20173;SDS011;10246;50.620;7.232;2023-04-03T01:05:34;0.20;;;0.20;;
20173;SDS011;10246;50.620;7.232;2023-04-03T01:08:01;0.13;;;0.13;;
20173;SDS011;10246;50.620;7.232;2023-04-03T01:10:28;0.20;;;0.20;;
20173;SDS011;10246;50.620;7.232;2023-04-03T01:12:55;0.10;;;0.10;;
20173;SDS011;10246;50.620;7.232;2023-04-03T01:15:23;0.20;;;0.20;;
20173;SDS011;10246;50.620;7.232;2023-04-03T01:17:53;0.10;;;0.10;;
20173;SDS011;10246;50.620;7.232;2023-04-03T01:20:35;0.10;;;0.10;;
20173;SDS011;10246;50.620;7.232;2023-04-03T01:23:13;0.20;;;0.20;;
20173;SDS011;10246;50.620;7.232;2023-04-03T01:25:52;0.20;;;0.20;;
20173;SDS011;10246;50.620;7.232;2023-04-03T01:28:20;0.20;;;0.20;;
20173;SDS011;10246;50.620;7.232;2023-04-03T01:30:50;0.20;;;0.20;;
20173;SDS011;10246;50.620;7.232;2023-04-03T01:33:21;0.20;;;0.20;;
20173;SDS011;10246;50.620;7.232;2023-04-03T01:35:47;0.20;;;0.20;;
20173;SDS011;10246;50.620;7.232;2023-04-03T01:38:14;0.10;;;0.10;;
20173;SDS011;10246;50.620;7.232;2023-04-03T01:40:41;0.20;;;0.20;;
20173;SDS011;10246;50.620;7.232;2023-04-03T01:43:08;0.10;;;0.10;;
20173;SDS011;10246;50.620;7.232;2023-04-03T01:45:35;0.20;;;0.20;;
20173;SDS011;10246;50.620;7.232;2023-04-03T01:48:01;0.10;;;0.10;;
20173;SDS011;10246;50.620;7.232;2023-04-03T01:50:30;0.10;;;0.10;;
20173;SDS011;10246;50.620;7.232;2023-04-03T01:52:57;0.10;;;0.10;;
20173;SDS011;10246;50.620;7.232;2023-04-03T01:55:24;0.20;;;0.20;;
20173;SDS011;10246;50.620;7.232;2023-04-03T01:57:51;0.10;;;0.10;;
20173;SDS011;10246;50.620;7.232;2023-04-03T02:00:17;0.17;;;0.17;;
20173;SDS011;10246;50.620;7.232;2023-04-03T02:02:45;0.20;;;0.20;;
20173;SDS011;10246;50.620;7.232;2023-04-03T02:05:11;0.10;;;0.10;;
20173;SDS011;10246;50.620;7.232;2023-04-03T02:07:39;0.10;;;0.10;;
20173;SDS011;10246;50.620;7.232;2023-04-03T02:10:06;0.20;;;0.20;;
20173;SDS011;10246;50.620;7.232;2023-04-03T02:12:34;0.20;;;0.20;;
20173;SDS011;10246;50.620;7.232;2023-04-03T02:15:00;0.17;;;0.17;;
20173;SDS011;10246;50.620;7.232;2023-04-03T02:17:27;0.20;;;0.20;;
20173;SDS011;10246;50.620;7.232;2023-04-03T02:19:54;0.20;;;0.20;;
20173;SDS011;10246;50.620;7.232;2023-04-03T02:22:20;0.20;;;0.20;;
20173;SDS011;10246;50.620;7.232;2023-04-03T02:24:48;0.20;;;0.20;;
20173;SDS011;10246;50.620;7.232;2023-04-03T02:27:16;0.20;;;0.20;;
20173;SDS011;10246;50.620;7.232;2023-04-03T02:29:43;0.10;;;0.10;;
20173;SDS011;10246;50.620;7.232;2023-04-03T02:32:10;0.17;;;0.17;;
20173;SDS011;10246;50.620;7.232;2023-04-03T02:34:37;0.10;;;0.10;;
20173;SDS011;10246;50.620;7.232;2023-04-03T02:37:03;0.10;;;0.10;;
20173;SDS011;10246;50.620;7.232;2023-04-03T02:39:30;0.20;;;0.20;;
20173;SDS011;10246;50.620;7.232;2023-04-03T02:41:58;0.20;;;0.20;;
20173;SDS011;10246;50.620;7.232;2023-04-03T02:44:25;0.17;;;0.17;;
20173;SDS011;10246;50.620;7.232;2023-04-03T02:46:52;0.20;;;0.20;;
20173;SDS011;10246;50.620;7.232;2023-04-03T02:49:19;0.20;;;0.20;;
20173;SDS011;10246;50.620;7.232;2023-04-03T02:51:46;0.20;;;0.20;;
20173;SDS011;10246;50.620;7.232;2023-04-03T02:54:13;0.10;;;0.10;;
20173;SDS011;10246;50.620;7.232;2023-04-03T02:56:40;0.20;;;0.20;;
20173;SDS011;10246;50.620;7.232;2023-04-03T02:59:08;0.20;;;0.20;;
20173;SDS011;10246;50.620;7.232;2023-04-03T03:01:34;0.20;;;0.20;;
20173;SDS011;10246;50.620;7.232;2023-04-03T03:04:01;0.20;;;0.20;;
20173;SDS011;10246;50.620;7.232;2023-04-03T03:06:28;0.20;;;0.20;;
20173;SDS011;10246;50.620;7.232;2023-04-03T03:08:55;0.20;;;0.20;;
20173;SDS011;10246;50.620;7.232;2023-04-03T03:11:21;0.20;;;0.20;;
20173;SDS011;10246;50.620;7.232;2023-04-03T03:13:48;0.20;;;0.20;;
20173;SDS011;10246;50.620;7.232;2023-04-03T03:16:16;0.20;;;0.20;;
20173;SDS011;10246;50.620;7.232;2023-04-03T03:18:43;0.10;;;0.10;;
20173;SDS011;10246;50.620;7.232;2023-04-03T03:21:10;0.20;;;0.20;;
20173;SDS011;10246;50.620;7.232;2023-04-03T03:23:37;0.20;;;0.20;;
20173;SDS011;10246;50.620;7.232;2023-04-03T03:26:05;0.20;;;0.20;;
20173;SDS011;10246;50.620;7.232;2023-04-03T03:28:34;0.20;;;0.20;;
20173;SDS011;10246;50.620;7.232;2023-04-03T03:31:02;0.20;;;0.20;;
20173;SDS011;10246;50.620;7.232;2023-04-03T03:33:30;0.10;;;0.10;;
20173;SDS011;10246;50.620;7.232;2023-04-03T03:35:57;0.20;;;0.20;;
20173;SDS011;10246;50.620;7.232;2023-04-03T03:38:24;0.20;;;0.20;;
20173;SDS011;10246;50.620;7.232;2023-04-03T03:40:51;0.20;;;0.20;;
20173;SDS011;10246;50.620;7.232;2023-04-03T03:43:18;0.20;;;0.20;;
20173;SDS011;10246;50.620;7.232;2023-04-03T03:45:46;0.10;;;0.10;;
20173;SDS011;10246;50.620;7.232;2023-04-03T03:48:16;0.13;;;0.13;;
20173;SDS011;10246;50.620;7.232;2023-04-03T03:50:44;0.20;;;0.20;;
20173;SDS011;10246;50.620;7.232;2023-04-03T03:53:11;0.20;;;0.20;;
20173;SDS011;10246;50.620;7.232;2023-04-03T03:55:38;0.20;;;0.20;;
20173;SDS011;10246;50.620;7.232;2023-04-03T03:58:05;0.20;;;0.20;;
20173;SDS011;10246;50.620;7.232;2023-04-03T04:00:32;0.20;;;0.20;;
20173;SDS011;10246;50.620;7.232;2023-04-03T04:02:58;0.10;;;0.10;;
20173;SDS011;10246;50.620;7.232;2023-04-03T04:05:25;0.10;;;0.10;;
20173;SDS011;10246;50.620;7.232;2023-04-03T04:07:53;0.20;;;0.20;;
20173;SDS011;10246;50.620;7.232;2023-04-03T04:10:22;0.20;;;0.20;;
20173;SDS011;10246;50.620;7.232;2023-04-03T04:12:49;0.20;;;0.20;;
20173;SDS011;10246;50.620;7.232;2023-04-03T04:15:16;0.10;;;0.10;;
20173;SDS011;10246;50.620;7.232;2023-04-03T04:17:43;0.20;;;0.20;;
20173;SDS011;10246;50.620;7.232;2023-04-03T04:20:10;0.20;;;0.20;;
20173;SDS011;10246;50.620;7.232;2023-04-03T04:22:37;0.20;;;0.20;;
20173;SDS011;10246;50.620;7.232;2023-04-03T04:25:06;0.20;;;0.20;;
20173;SDS011;10246;50.620;7.232;2023-04-03T04:27:33;0.20;;;0.20;;
20173;SDS011;10246;50.620;7.232;2023-04-03T04:30:00;0.20;;;0.20;;
20173;SDS011;10246;50.620;7.232;2023-04-03T04:32:27;0.20;;;0.20;;
20173;SDS011;10246;50.620;7.232;2023-04-03T04:34:54;0.20;;;0.20;;
20173;SDS011;10246;50.620;7.232;2023-04-03T04:37:21;0.10;;;0.10;;
20173;SDS011;10246;50.620;7.232;2023-04-03T04:39:48;0.20;;;0.20;;
20173;SDS011;10246;50.620;7.232;2023-04-03T04:42:16;0.20;;;0.20;;
20173;SDS011;10246;50.620;7.232;2023-04-03T04:44:43;0.20;;;0.20;;
20173;SDS011;10246;50.620;7.232;2023-04-03T04:47:10;0.20;;;0.20;;
20173;SDS011;10246;50.620;7.232;2023-04-03T04:49:37;0.20;;;0.20;;
20173;SDS011;10246;50.620;7.232;2023-04-03T04:52:04;0.20;;;0.20;;
20173;SDS011;10246;50.620;7.232;2023-04-03T04:54:31;0.20;;;0.20;;
20173;SDS011;10246;50.620;7.232;2023-04-03T04:56:58;0.20;;;0.20;;
20173;SDS011;10246;50.620;7.232;2023-04-03T04:59:26;0.20;;;0.20;;
20173;SDS011;10246;50.620;7.232;2023-04-03T05:01:53;0.30;;;0.30;;
20173;SDS011;10246;50.620;7.232;2023-04-03T05:04:20;0.20;;;0.20;;
20173;SDS011;10246;50.620;7.232;2023-04-03T05:06:47;0.20;;;0.20;;
20173;SDS011;10246;50.620;7.232;2023-04-03T05:09:13;0.20;;;0.20;;
20173;SDS011;10246;50.620;7.232;2023-04-03T05:11:41;0.20;;;0.20;;
20173;SDS011;10246;50.620;7.232;2023-04-03T05:14:08;0.20;;;0.20;;
20173;SDS011;10246;50.620;7.232;2023-04-03T05:16:36;0.20;;;0.20;;
20173;SDS011;10246;50.620;7.232;2023-04-03T05:19:03;0.20;;;0.20;;
20173;SDS011;10246;50.620;7.232;2023-04-03T05:21:30;0.20;;;0.20;;
20173;SDS011;10246;50.620;7.232;2023-04-03T05:23:58;0.20;;;0.20;;
20173;SDS011;10246;50.620;7.232;2023-04-03T05:26:27;0.20;;;0.20;;
20173;SDS011;10246;50.620;7.232;2023-04-03T05:28:54;0.30;;;0.30;;
20173;SDS011;10246;50.620;7.232;2023-04-03T05:31:21;0.20;;;0.20;;
20173;SDS011;10246;50.620;7.232;2023-04-03T05:33:49;0.20;;;0.20;;
20173;SDS011;10246;50.620;7.232;2023-04-03T05:36:16;0.27;;;0.27;;
20173;SDS011;10246;50.620;7.232;2023-04-03T05:38:43;0.20;;;0.20;;
20173;SDS011;10246;50.620;7.232;2023-04-03T05:41:10;0.20;;;0.20;;
20173;SDS011;10246;50.620;7.232;2023-04-03T05:43:37;0.20;;;0.20;;
20173;SDS011;10246;50.620;7.232;2023-04-03T05:46:04;0.20;;;0.20;;
20173;SDS011;10246;50.620;7.232;2023-04-03T05:48:34;0.20;;;0.20;;
20173;SDS011;10246;50.620;7.232;2023-04-03T05:51:03;0.20;;;0.20;;
20173;SDS011;10246;50.620;7.232;2023-04-03T05:53:31;0.20;;;0.20;;
20173;SDS011;10246;50.620;7.232;2023-04-03T05:56:00;0.20;;;0.20;;
20173;SDS011;10246;50.620;7.232;2023-04-03T05:58:27;0.20;;;0.20;;
20173;SDS011;10246;50.620;7.232;2023-04-03T06:00:53;0.20;;;0.20;;
20173;SDS011;10246;50.620;7.232;2023-04-03T06:03:20;0.20;;;0.20;;
20173;SDS011;10246;50.620;7.232;2023-04-03T06:05:47;0.20;;;0.20;;
20173;SDS011;10246;50.620;7.232;2023-04-03T06:08:15;0.20;;;0.20;;
20173;SDS011;10246;50.620;7.232;2023-04-03T06:10:42;0.30;;;0.30;;
20173;SDS011;10246;50.620;7.232;2023-04-03T06:13:09;0.20;;;0.20;;
20173;SDS011;10246;50.620;7.232;2023-04-03T06:15:35;0.20;;;0.20;;
20173;SDS011;10246;50.620;7.232;2023-04-03T06:18:03;0.20;;;0.20;;
20173;SDS011;10246;50.620;7.232;2023-04-03T06:20:30;0.30;;;0.30;;
20173;SDS011;10246;50.620;7.232;2023-04-03T06:22:57;0.23;;;0.23;;
20173;SDS011;10246;50.620;7.232;2023-04-03T06:25:25;0.20;;;0.20;;
20173;SDS011;10246;50.620;7.232;2023-04-03T06:27:51;0.20;;;0.20;;
20173;SDS011;10246;50.620;7.232;2023-04-03T06:30:20;0.20;;;0.20;;
20173;SDS011;10246;50.620;7.232;2023-04-03T06:32:47;0.20;;;0.20;;
20173;SDS011;10246;50.620;7.232;2023-04-03T06:35:14;0.23;;;0.23;;
20173;SDS011;10246;50.620;7.232;2023-04-03T06:37:40;0.20;;;0.20;;
20173;SDS011;10246;50.620;7.232;2023-04-03T06:40:09;0.20;;;0.20;;
20173;SDS011;10246;50.620;7.232;2023-04-03T06:42:46;0.20;;;0.20;;
20173;SDS011;10246;50.620;7.232;2023-04-03T06:45:12;0.20;;;0.20;;
20173;SDS011;10246;50.620;7.232;2023-04-03T06:47:39;0.20;;;0.20;;
20173;SDS011;10246;50.620;7.232;2023-04-03T06:50:06;0.20;;;0.20;;
20173;SDS011;10246;50.620;7.232;2023-04-03T06:52:36;0.20;;;0.20;;
20173;SDS011;10246;50.620;7.232;2023-04-03T06:55:04;0.20;;;0.20;;
20173;SDS011;10246;50.620;7.232;2023-04-03T06:57:32;0.10;;;0.10;;
20173;SDS011;10246;50.620;7.232;2023-04-03T07:00:00;0.27;;;0.27;;
20173;SDS011;10246;50.620;7.232;2023-04-03T07:02:28;0.20;;;0.20;;
20173;SDS011;10246;50.620;7.232;2023-04-03T07:04:54;0.20;;;0.20;;
20173;SDS011;10246;50.620;7.232;2023-04-03T07:07:21;0.20;;;0.20;;
20173;SDS011;10246;50.620;7.232;2023-04-03T07:09:48;0.20;;;0.20;;
20173;SDS011;10246;50.620;7.232;2023-04-03T07:12:15;0.20;;;0.20;;
20173;SDS011;10246;50.620;7.232;2023-04-03T07:14:42;0.20;;;0.20;;
20173;SDS011;10246;50.620;7.232;2023-04-03T07:17:10;0.10;;;0.10;;
20173;SDS011;10246;50.620;7.232;2023-04-03T07:19:36;0.20;;;0.20;;
20173;SDS011;10246;50.620;7.232;2023-04-03T07:22:03;0.20;;;0.20;;
20173;SDS011;10246;50.620;7.232;2023-04-03T07:24:30;0.20;;;0.20;;
20173;SDS011;10246;50.620;7.232;2023-04-03T07:26:57;0.20;;;0.20;;
20173;SDS011;10246;50.620;7.232;2023-04-03T07:29:23;0.10;;;0.10;;
20173;SDS011;10246;50.620;7.232;2023-04-03T07:31:50;0.20;;;0.20;;
20173;SDS011;10246;50.620;7.232;2023-04-03T07:34:18;0.10;;;0.10;;
20173;SDS011;10246;50.620;7.232;2023-04-03T07:36:47;0.20;;;0.20;;
20173;SDS011;10246;50.620;7.232;2023-04-03T07:39:14;0.13;;;0.13;;
20173;SDS011;10246;50.620;7.232;2023-04-03T07:41:41;0.20;;;0.20;;
20173;SDS011;10246;50.620;7.232;2023-04-03T07:44:07;0.20;;;0.20;;
20173;SDS011;10246;50.620;7.232;2023-04-03T07:46:35;0.10;;;0.10;;
20173;SDS011;10246;50.620;7.232;2023-04-03T07:49:02;0.20;;;0.20;;
20173;SDS011;10246;50.620;7.232;2023-04-03T07:51:31;0.10;;;0.10;;
20173;SDS011;10246;50.620;7.232;2023-04-03T07:53:58;0.10;;;0.10;;
20173;SDS011;10246;50.620;7.232;2023-04-03T07:56:24;0.10;;;0.10;;
20173;SDS011;10246;50.620;7.232;2023-04-03T07:58:51;0.10;;;0.10;;
20173;SDS011;10246;50.620;7.232;2023-04-03T08:01:18;0.10;;;0.10;;
20173;SDS011;10246;50.620;7.232;2023-04-03T08:03:45;0.10;;;0.10;;
20173;SDS011;10246;50.620;7.232;2023-04-03T08:06:12;0.10;;;0.10;;
20173;SDS011;10246;50.620;7.232;2023-04-03T08:08:41;0.10;;;0.10;;
20173;SDS011;10246;50.620;7.232;2023-04-03T08:11:09;0.10;;;0.10;;
20173;SDS011;10246;50.620;7.232;2023-04-03T08:13:39;0.10;;;0.10;;
20173;SDS011;10246;50.620;7.232;2023-04-03T08:18:38;0.10;;;0.10;;
20173;SDS011;10246;50.620;7.232;2023-04-03T08:21:06;0.10;;;0.10;;
20173;SDS011;10246;50.620;7.232;2023-04-03T08:23:34;0.10;;;0.10;;
20173;SDS011;10246;50.620;7.232;2023-04-03T08:26:08;0.10;;;0.10;;
20173;SDS011;10246;50.620;7.232;2023-04-03T08:28:38;0.10;;;0.10;;
20173;SDS011;10246;50.620;7.232;2023-04-03T08:31:09;0.10;;;0.10;;
20173;SDS011;10246;50.620;7.232;2023-04-03T08:33:38;0.10;;;0.10;;
20173;SDS011;10246;50.620;7.232;2023-04-03T08:36:14;0.10;;;0.10;;
20173;SDS011;10246;50.620;7.232;2023-04-03T08:38:46;0.10;;;0.10;;
20173;SDS011;10246;50.620;7.232;2023-04-03T08:41:16;0.10;;;0.10;;
20173;SDS011;10246;50.620;7.232;2023-04-03T08:44:00;0.10;;;0.10;;
20173;SDS011;10246;50.620;7.232;2023-04-03T08:46:51;0.10;;;0.10;;
20173;SDS011;10246;50.620;7.232;2023-04-03T08:49:32;0.10;;;0.10;;
20173;SDS011;10246;50.620;7.232;2023-04-03T08:52:02;0.10;;;0.10;;
20173;SDS011;10246;50.620;7.232;2023-04-03T08:54:37;0.20;;;0.20;;
20173;SDS011;10246;50.620;7.232;2023-04-03T08:57:17;0.10;;;0.10;;
20173;SDS011;10246;50.620;7.232;2023-04-03T08:59:50;0.10;;;0.10;;
20173;SDS011;10246;50.620;7.232;2023-04-03T09:02:23;0.10;;;0.10;;
20173;SDS011;10246;50.620;7.232;2023-04-03T09:04:54;0.10;;;0.10;;
20173;SDS011;10246;50.620;7.232;2023-04-03T09:07:22;0.10;;;0.10;;
20173;SDS011;10246;50.620;7.232;2023-04-03T09:10:01;0.10;;;0.10;;
20173;SDS011;10246;50.620;7.232;2023-04-03T09:12:37;0.10;;;0.10;;
20173;SDS011;10246;50.620;7.232;2023-04-03T09:15:16;0.10;;;0.10;;
20173;SDS011;10246;50.620;7.232;2023-04-03T09:17:50;0.10;;;0.10;;
20173;SDS011;10246;50.620;7.232;2023-04-03T09:20:30;0.10;;;0.10;;
20173;SDS011;10246;50.620;7.232;2023-04-03T09:23:12;0.10;;;0.10;;
20173;SDS011;10246;50.620;7.232;2023-04-03T09:25:51;0.10;;;0.10;;
20173;SDS011;10246;50.620;7.232;2023-04-03T09:28:29;0.10;;;0.10;;
20173;SDS011;10246;50.620;7.232;2023-04-03T09:30:59;0.10;;;0.10;;
20173;SDS011;10246;50.620;7.232;2023-04-03T09:33:28;0.10;;;0.10;;
20173;SDS011;10246;50.620;7.232;2023-04-03T09:35:57;0.10;;;0.10;;
20173;SDS011;10246;50.620;7.232;2023-04-03T09:38:28;0.10;;;0.10;;
20173;SDS011;10246;50.620;7.232;2023-04-03T09:41:03;0.10;;;0.10;;
20173;SDS011;10246;50.620;7.232;2023-04-03T09:43:38;0.10;;;0.10;;
20173;SDS011;10246;50.620;7.232;2023-04-03T09:46:21;0.10;;;0.10;;
20173;SDS011;10246;50.620;7.232;2023-04-03T09:48:55;0.10;;;0.10;;
20173;SDS011;10246;50.620;7.232;2023-04-03T09:51:25;0.10;;;0.10;;
20173;SDS011;10246;50.620;7.232;2023-04-03T09:53:54;0.10;;;0.10;;
20173;SDS011;10246;50.620;7.232;2023-04-03T09:56:23;0.10;;;0.10;;
20173;SDS011;10246;50.620;7.232;2023-04-03T09:59:06;0.10;;;0.10;;
20173;SDS011;10246;50.620;7.232;2023-04-03T10:01:41;0.10;;;0.10;;
20173;SDS011;10246;50.620;7.232;2023-04-03T10:04:24;0.10;;;0.10;;
20173;SDS011;10246;50.620;7.232;2023-04-03T10:06:52;0.10;;;0.10;;
20173;SDS011;10246;50.620;7.232;2023-04-03T10:09:21;0.10;;;0.10;;
20173;SDS011;10246;50.620;7.232;2023-04-03T10:11:57;0.10;;;0.10;;
20173;SDS011;10246;50.620;7.232;2023-04-03T10:14:28;0.10;;;0.10;;
20173;SDS011;10246;50.620;7.232;2023-04-03T10:16:57;0.10;;;0.10;;
20173;SDS011;10246;50.620;7.232;2023-04-03T10:19:46;0.10;;;0.10;;
20173;SDS011;10246;50.620;7.232;2023-04-03T10:22:25;0.10;;;0.10;;
20173;SDS011;10246;50.620;7.232;2023-04-03T10:25:01;0.10;;;0.10;;
20173;SDS011;10246;50.620;7.232;2023-04-03T10:27:39;0.10;;;0.10;;
20173;SDS011;10246;50.620;7.232;2023-04-03T10:30:24;0.10;;;0.10;;
20173;SDS011;10246;50.620;7.232;2023-04-03T10:33:14;0.10;;;0.10;;
20173;SDS011;10246;50.620;7.232;2023-04-03T10:35:53;0.10;;;0.10;;
20173;SDS011;10246;50.620;7.232;2023-04-03T10:38:36;0.10;;;0.10;;
20173;SDS011;10246;50.620;7.232;2023-04-03T10:41:17;0.10;;;0.10;;
20173;SDS011;10246;50.620;7.232;2023-04-03T10:43:59;0.10;;;0.10;;
20173;SDS011;10246;50.620;7.232;2023-04-03T10:46:47;0.10;;;0.10;;
20173;SDS011;10246;50.620;7.232;2023-04-03T10:49:19;0.10;;;0.10;;
20173;SDS011;10246;50.620;7.232;2023-04-03T10:51:58;0.10;;;0.10;;
20173;SDS011;10246;50.620;7.232;2023-04-03T10:54:36;0.10;;;0.10;;
20173;SDS011;10246;50.620;7.232;2023-04-03T10:57:06;0.10;;;0.10;;
20173;SDS011;10246;50.620;7.232;2023-04-03T10:59:38;0.10;;;0.10;;
20173;SDS011;10246;50.620;7.232;2023-04-03T11:02:13;0.10;;;0.10;;
20173;SDS011;10246;50.620;7.232;2023-04-03T11:04:46;0.10;;;0.10;;
20173;SDS011;10246;50.620;7.232;2023-04-03T11:07:21;0.10;;;0.10;;
20173;SDS011;10246;50.620;7.232;2023-04-03T11:09:52;0.10;;;0.10;;
20173;SDS011;10246;50.620;7.232;2023-04-03T11:12:25;0.10;;;0.10;;
20173;SDS011;10246;50.620;7.232;2023-04-03T11:14:57;0.10;;;0.10;;
20173;SDS011;10246;50.620;7.232;2023-04-03T11:17:31;0.10;;;0.10;;
20173;SDS011;10246;50.620;7.232;2023-04-03T11:20:04;0.10;;;0.10;;
20173;SDS011;10246;50.620;7.232;2023-04-03T11:22:39;0.10;;;0.10;;
20173;SDS011;10246;50.620;7.232;2023-04-03T11:25:14;0.10;;;0.10;;
20173;SDS011;10246;50.620;7.232;2023-04-03T11:27:48;0.10;;;0.10;;
20173;SDS011;10246;50.620;7.232;2023-04-03T11:30:20;0.10;;;0.10;;
20173;SDS011;10246;50.620;7.232;2023-04-03T11:33:07;0.10;;;0.10;;
20173;SDS011;10246;50.620;7.232;2023-04-03T11:35:53;0.10;;;0.10;;
20173;SDS011;10246;50.620;7.232;2023-04-03T11:38:24;0.10;;;0.10;;
20173;SDS011;10246;50.620;7.232;2023-04-03T11:40:55;0.10;;;0.10;;
20173;SDS011;10246;50.620;7.232;2023-04-03T11:43:26;0.10;;;0.10;;
20173;SDS011;10246;50.620;7.232;2023-04-03T11:45:55;0.10;;;0.10;;
20173;SDS011;10246;50.620;7.232;2023-04-03T12:12:43;0.10;;;0.10;;
20173;SDS011;10246;50.620;7.232;2023-04-03T12:21:23;0.10;;;0.10;;
20173;SDS011;10246;50.620;7.232;2023-04-03T12:24:23;0.10;;;0.10;;
20173;SDS011;10246;50.620;7.232;2023-04-03T12:27:05;0.10;;;0.10;;
20173;SDS011;10246;50.620;7.232;2023-04-03T12:29:46;0.10;;;0.10;;
20173;SDS011;10246;50.620;7.232;2023-04-03T12:32:22;0.10;;;0.10;;
20173;SDS011;10246;50.620;7.232;2023-04-03T12:35:05;0.10;;;0.10;;
20173;SDS011;10246;50.620;7.232;2023-04-03T12:37:48;0.10;;;0.10;;
20173;SDS011;10246;50.620;7.232;2023-04-03T12:40:39;0.10;;;0.10;;
20173;SDS011;10246;50.620;7.232;2023-04-03T12:43:31;0.10;;;0.10;;
20173;SDS011;10246;50.620;7.232;2023-04-03T12:46:10;0.10;;;0.10;;
20173;SDS011;10246;50.620;7.232;2023-04-03T12:48:46;0.10;;;0.10;;
20173;SDS011;10246;50.620;7.232;2023-04-03T12:51:15;0.10;;;0.10;;
20173;SDS011;10246;50.620;7.232;2023-04-03T12:53:47;0.10;;;0.10;;
20173;SDS011;10246;50.620;7.232;2023-04-03T12:56:19;0.10;;;0.10;;
20173;SDS011;10246;50.620;7.232;2023-04-03T12:58:50;0.10;;;0.10;;
20173;SDS011;10246;50.620;7.232;2023-04-03T13:01:19;0.10;;;0.10;;
20173;SDS011;10246;50.620;7.232;2023-04-03T13:03:49;0.10;;;0.10;;
20173;SDS011;10246;50.620;7.232;2023-04-03T13:06:19;0.10;;;0.10;;
20173;SDS011;10246;50.620;7.232;2023-04-03T13:08:50;0.10;;;0.10;;
20173;SDS011;10246;50.620;7.232;2023-04-03T13:11:20;0.10;;;0.10;;
20173;SDS011;10246;50.620;7.232;2023-04-03T13:13:57;0.10;;;0.10;;
20173;SDS011;10246;50.620;7.232;2023-04-03T13:16:31;0.10;;;0.10;;
20173;SDS011;10246;50.620;7.232;2023-04-03T13:18:59;0.10;;;0.10;;
20173;SDS011;10246;50.620;7.232;2023-04-03T13:21:30;0.10;;;0.10;;
20173;SDS011;10246;50.620;7.232;2023-04-03T13:24:02;0.10;;;0.10;;
20173;SDS011;10246;50.620;7.232;2023-04-03T13:26:30;0.10;;;0.10;;
20173;SDS011;10246;50.620;7.232;2023-04-03T13:29:04;0.10;;;0.10;;
20173;SDS011;10246;50.620;7.232;2023-04-03T13:31:34;0.10;;;0.10;;
20173;SDS011;10246;50.620;7.232;2023-04-03T13:34:05;0.10;;;0.10;;
20173;SDS011;10246;50.620;7.232;2023-04-03T13:36:43;0.10;;;0.10;;
20173;SDS011;10246;50.620;7.232;2023-04-03T13:39:22;0.10;;;0.10;;
20173;SDS011;10246;50.620;7.232;2023-04-03T13:41:51;0.10;;;0.10;;
20173;SDS011;10246;50.620;7.232;2023-04-03T13:44:26;0.10;;;0.10;;
20173;SDS011;10246;50.620;7.232;2023-04-03T13:46:57;0.10;;;0.10;;
20173;SDS011;10246;50.620;7.232;2023-04-03T13:49:31;0.10;;;0.10;;
20173;SDS011;10246;50.620;7.232;2023-04-03T13:52:00;0.10;;;0.10;;
20173;SDS011;10246;50.620;7.232;2023-04-03T13:54:33;0.00;;;0.00;;
20173;SDS011;10246;50.620;7.232;2023-04-03T13:57:02;0.10;;;0.10;;
20173;SDS011;10246;50.620;7.232;2023-04-03T13:59:38;0.10;;;0.10;;
20173;SDS011;10246;50.620;7.232;2023-04-03T14:02:23;0.10;;;0.10;;
20173;SDS011;10246;50.620;7.232;2023-04-03T14:05:07;0.00;;;0.00;;
20173;SDS011;10246;50.620;7.232;2023-04-03T14:07:37;0.03;;;0.03;;
20173;SDS011;10246;50.620;7.232;2023-04-03T14:10:06;0.00;;;0.00;;
20173;SDS011;10246;50.620;7.232;2023-04-03T14:12:35;0.10;;;0.10;;
20173;SDS011;10246;50.620;7.232;2023-04-03T14:15:07;0.10;;;0.10;;
20173;SDS011;10246;50.620;7.232;2023-04-03T14:17:43;0.00;;;0.00;;
20173;SDS011;10246;50.620;7.232;2023-04-03T14:20:16;0.10;;;0.10;;
20173;SDS011;10246;50.620;7.232;2023-04-03T14:22:46;0.10;;;0.10;;
20173;SDS011;10246;50.620;7.232;2023-04-03T14:25:17;0.10;;;0.10;;
20173;SDS011;10246;50.620;7.232;2023-04-03T14:27:49;0.10;;;0.10;;
20173;SDS011;10246;50.620;7.232;2023-04-03T14:30:20;0.03;;;0.03;;
20173;SDS011;10246;50.620;7.232;2023-04-03T14:32:50;0.10;;;0.10;;
20173;SDS011;10246;50.620;7.232;2023-04-03T14:35:21;0.10;;;0.10;;
20173;SDS011;10246;50.620;7.232;2023-04-03T14:37:50;0.10;;;0.10;;
20173;SDS011;10246;50.620;7.232;2023-04-03T14:40:25;0.10;;;0.10;;
20173;SDS011;10246;50.620;7.232;2023-04-03T14:42:54;0.10;;;0.10;;
20173;SDS011;10246;50.620;7.232;2023-04-03T14:45:24;0.00;;;0.00;;
20173;SDS011;10246;50.620;7.232;2023-04-03T14:47:53;0.00;;;0.00;;
20173;SDS011;10246;50.620;7.232;2023-04-03T14:50:23;0.10;;;0.10;;
20173;SDS011;10246;50.620;7.232;2023-04-03T14:52:55;0.10;;;0.10;;
20173;SDS011;10246;50.620;7.232;2023-04-03T14:55:31;0.10;;;0.10;;
20173;SDS011;10246;50.620;7.232;2023-04-03T14:58:02;0.10;;;0.10;;
20173;SDS011;10246;50.620;7.232;2023-04-03T15:00:31;0.10;;;0.10;;
20173;SDS011;10246;50.620;7.232;2023-04-03T15:03:03;0.10;;;0.10;;
20173;SDS011;10246;50.620;7.232;2023-04-03T15:05:32;0.10;;;0.10;;
20173;SDS011;10246;50.620;7.232;2023-04-03T15:08:02;0.00;;;0.00;;
20173;SDS011;10246;50.620;7.232;2023-04-03T15:10:33;0.10;;;0.10;;
20173;SDS011;10246;50.620;7.232;2023-04-03T15:13:00;0.10;;;0.10;;
20173;SDS011;10246;50.620;7.232;2023-04-03T15:15:29;0.10;;;0.10;;
20173;SDS011;10246;50.620;7.232;2023-04-03T15:17:59;0.10;;;0.10;;
20173;SDS011;10246;50.620;7.232;2023-04-03T15:20:27;0.10;;;0.10;;
20173;SDS011;10246;50.620;7.232;2023-04-03T15:22:59;0.10;;;0.10;;
20173;SDS011;10246;50.620;7.232;2023-04-03T15:25:28;0.10;;;0.10;;
20173;SDS011;10246;50.620;7.232;2023-04-03T15:28:05;0.10;;;0.10;;
20173;SDS011;10246;50.620;7.232;2023-04-03T15:30:37;0.10;;;0.10;;
20173;SDS011;10246;50.620;7.232;2023-04-03T15:33:10;0.10;;;0.10;;
20173;SDS011;10246;50.620;7.232;2023-04-03T15:35:37;0.10;;;0.10;;
20173;SDS011;10246;50.620;7.232;2023-04-03T15:38:06;0.10;;;0.10;;
20173;SDS011;10246;50.620;7.232;2023-04-03T15:40:33;0.10;;;0.10;;